Time;durP1;ratioP1;P1;durP2;ratioP2;P2;SDS_P1;SDS_P2;PMS_P1;PMS_P2;Temp;Humidity;BMP_temperature;BMP_pressure;BME280_temperature;BME280_humidity;BME280_pressure;Samples;Min_cycle;Max_cycle;Signal;HPM_P1;HPM_P2
2023/03/28 00:01:38;;;;;;;16.40;3.38;;;2.60;99.90;;;;;;4950344;28;20136;-72
2023/03/28 00:04:04;;;;;;;9.07;2.10;;;2.60;99.90;;;;;;4956528;28;20051;-72
2023/03/28 00:06:30;;;;;;;14.45;2.83;;;2.60;99.90;;;;;;4950551;28;20046;-72
2023/03/28 00:08:56;;;;;;;9.50;2.38;;;2.70;99.90;;;;;;4956666;28;20487;-72
2023/03/28 00:11:23;;;;;;;9.63;2.10;;;2.70;99.90;;;;;;4946054;28;20078;-72
2023/03/28 00:13:56;;;;;;;8.90;2.05;;;2.70;99.90;;;;;;4952572;28;20645;-72
2023/03/28 00:16:24;;;;;;;7.97;1.80;;;2.70;99.90;;;;;;4958664;28;20724;-73
2023/03/28 00:18:50;;;;;;;7.13;1.48;;;2.60;99.90;;;;;;4969998;28;20048;-72
2023/03/28 00:21:23;;;;;;;8.98;1.75;;;2.50;99.90;;;;;;4963058;28;20057;-73
2023/03/28 00:23:51;;;;;;;7.38;2.38;;;2.50;99.90;;;;;;4970738;28;20047;-72
2023/03/28 00:26:18;;;;;;;16.40;2.47;;;2.40;99.90;;;;;;4950978;28;20054;-73
2023/03/28 00:28:46;;;;;;;13.55;2.75;;;2.40;99.90;;;;;;4957872;28;20047;-72
2023/03/28 00:31:12;;;;;;;11.90;2.40;;;2.40;99.90;;;;;;4984102;28;20041;-73
2023/03/28 00:33:38;;;;;;;9.48;2.40;;;2.30;99.90;;;;;;4946675;28;20201;-72
2023/03/28 00:36:04;;;;;;;9.13;2.30;;;2.30;99.90;;;;;;4961187;28;20622;-73
2023/03/28 00:38:30;;;;;;;15.88;2.80;;;2.20;99.90;;;;;;4968856;28;20053;-72
2023/03/28 00:40:56;;;;;;;8.50;2.88;;;2.20;99.90;;;;;;4956631;28;20050;-73
2023/03/28 00:43:38;;;;;;;12.82;2.63;;;2.20;99.90;;;;;;4951566;28;20795;-73
2023/03/28 00:46:08;;;;;;;16.77;3.30;;;2.30;99.90;;;;;;4975002;28;20053;-73
2023/03/28 00:48:34;;;;;;;14.05;2.40;;;2.20;99.90;;;;;;4952574;28;20133;-73
2023/03/28 00:51:02;;;;;;;16.85;2.53;;;2.20;99.90;;;;;;4966857;28;20165;-73
2023/03/28 00:53:28;;;;;;;19.42;3.10;;;2.20;99.90;;;;;;4948451;28;20125;-72
2023/03/28 00:56:03;;;;;;;14.27;3.53;;;2.20;99.90;;;;;;4950396;28;20554;-73
2023/03/28 00:58:30;;;;;;;11.02;3.00;;;2.20;99.90;;;;;;4966243;28;20435;-72
2023/03/28 01:00:56;;;;;;;21.58;3.47;;;2.20;99.90;;;;;;4952424;28;20133;-73
2023/03/28 01:03:26;;;;;;;16.10;3.58;;;2.20;99.90;;;;;;4945353;28;20192;-72
2023/03/28 01:05:52;;;;;;;9.18;2.47;;;2.20;99.90;;;;;;4987031;28;20042;-72
2023/03/28 01:08:22;;;;;;;16.70;3.33;;;2.30;99.90;;;;;;4961731;28;20050;-73
2023/03/28 01:10:49;;;;;;;12.27;3.13;;;2.30;99.90;;;;;;4957904;28;20129;-73
2023/03/28 01:13:17;;;;;;;13.10;3.35;;;2.30;99.90;;;;;;4965865;28;20142;-73
2023/03/28 01:15:43;;;;;;;16.08;3.08;;;2.40;99.90;;;;;;4971528;28;20047;-73
2023/03/28 01:18:15;;;;;;;20.77;3.80;;;2.40;99.90;;;;;;4950746;28;20438;-72
2023/03/28 01:20:53;;;;;;;12.13;3.10;;;2.50;99.90;;;;;;4960821;28;20051;-72
2023/03/28 01:23:37;;;;;;;;;;;2.40;99.90;;;;;;4971764;28;20047;-72
2023/03/28 01:26:36;;;;;;;16.67;3.42;;;2.30;99.90;;;;;;4979434;28;19921;-72
2023/03/28 01:29:11;;;;;;;13.60;2.70;;;2.40;99.90;;;;;;4983121;28;20046;-73
2023/03/28 01:32:15;;;;;;;16.33;3.13;;;2.30;99.90;;;;;;4983276;28;20487;-73
2023/03/28 01:35:10;;;;;;;15.45;3.55;;;2.30;99.90;;;;;;4982702;28;20816;-73
2023/03/28 01:38:03;;;;;;;14.05;3.20;;;2.40;99.90;;;;;;4981057;28;20054;-73
2023/03/28 01:40:38;;;;;;;16.90;2.92;;;2.50;99.90;;;;;;4948643;28;20050;-73
2023/03/28 01:43:37;;;;;;;12.10;3.22;;;2.50;99.90;;;;;;4977124;28;20058;-73
2023/03/28 01:46:10;;;;;;;15.70;2.67;;;2.30;99.90;;;;;;4983640;28;20860;-72
2023/03/28 01:48:56;;;;;;;12.15;2.28;;;2.40;99.90;;;;;;4971144;28;20061;-73
2023/03/28 01:51:22;;;;;;;11.55;2.22;;;2.50;99.90;;;;;;4964018;28;20042;-72
2023/03/28 01:54:01;;;;;;;17.90;2.70;;;2.40;99.90;;;;;;4985121;28;20046;-72
2023/03/28 01:56:36;;;;;;;12.63;1.98;;;2.50;99.90;;;;;;4960832;28;20049;-72
2023/03/28 01:59:11;;;;;;;10.27;2.33;;;2.50;99.90;;;;;;4950584;28;20046;-72
2023/03/28 02:01:56;;;;;;;10.88;2.15;;;2.50;99.90;;;;;;4957481;28;20062;-72
2023/03/28 02:04:22;;;;;;;13.45;2.75;;;2.50;99.90;;;;;;4955328;28;20487;-73
2023/03/28 02:06:48;;;;;;;19.73;3.95;;;2.50;99.90;;;;;;4955754;28;20383;-72
2023/03/28 02:09:14;;;;;;;16.05;2.38;;;2.50;99.90;;;;;;4953581;28;20046;-72
2023/03/28 02:11:40;;;;;;;14.18;2.65;;;2.50;99.90;;;;;;4969225;28;20129;-72
2023/03/28 02:14:08;;;;;;;11.50;2.42;;;2.40;99.90;;;;;;4981446;28;20059;-72
2023/03/28 02:16:40;;;;;;;8.25;2.05;;;2.50;99.90;;;;;;4955257;28;20057;-72
2023/03/28 02:19:06;;;;;;;13.70;3.40;;;2.60;99.90;;;;;;4959901;28;20085;-71
2023/03/28 02:21:51;;;;;;;16.67;2.53;;;2.50;99.90;;;;;;4944774;28;20129;-72
2023/03/28 02:24:16;;;;;;;15.10;3.08;;;2.50;99.90;;;;;;4968153;28;20043;-72
2023/03/28 02:26:42;;;;;;;19.33;3.38;;;2.50;99.90;;;;;;4950534;28;20045;-72
2023/03/28 02:29:08;;;;;;;9.52;2.08;;;2.40;99.90;;;;;;4976444;28;20070;-72
2023/03/28 02:31:35;;;;;;;14.52;3.00;;;2.50;99.90;;;;;;4951010;28;20057;-73
2023/03/28 02:34:02;;;;;;;12.77;3.00;;;2.40;99.90;;;;;;4972965;28;20054;-72
2023/03/28 02:36:49;;;;;;;12.00;2.75;;;2.40;99.90;;;;;;4964327;28;20054;-72
2023/03/28 02:39:30;;;;;;;10.23;2.95;;;2.40;99.90;;;;;;4978103;28;20054;-72
2023/03/28 02:42:16;;;;;;;13.88;2.83;;;2.30;99.90;;;;;;4967817;28;20060;-72
2023/03/28 02:44:48;;;;;;;11.70;3.67;;;2.30;99.90;;;;;;4985969;28;20038;-73
2023/03/28 02:47:22;;;;;;;11.98;2.80;;;2.30;99.90;;;;;;4980151;28;20049;-72
2023/03/28 02:49:55;;;;;;;12.50;3.20;;;2.30;99.90;;;;;;4987500;28;20046;-72
2023/03/28 02:52:33;;;;;;;16.50;3.95;;;2.20;99.90;;;;;;4973217;28;20078;-72
2023/03/28 02:55:04;;;;;;;10.82;2.75;;;2.30;99.90;;;;;;4977500;28;20784;-73
2023/03/28 02:57:35;;;;;;;15.40;3.13;;;2.20;99.90;;;;;;4951611;28;20061;-72
2023/03/28 03:00:10;;;;;;;17.92;3.35;;;2.20;99.90;;;;;;4973717;28;20045;-72
2023/03/28 03:02:36;;;;;;;15.95;2.78;;;2.20;99.90;;;;;;4983419;28;20058;-72
2023/03/28 03:05:02;;;;;;;11.35;3.50;;;2.30;99.90;;;;;;4964875;28;20047;-72
2023/03/28 03:07:29;;;;;;;15.13;3.40;;;2.40;99.90;;;;;;4964315;28;20047;-72
2023/03/28 03:09:55;;;;;;;15.23;3.08;;;2.30;99.90;;;;;;4951740;28;20093;-71
2023/03/28 03:12:22;;;;;;;15.00;3.67;;;2.30;99.90;;;;;;4985973;28;20054;-72
2023/03/28 03:14:49;;;;;;;11.32;3.05;;;2.30;99.90;;;;;;4947975;28;20038;-72
2023/03/28 03:17:19;;;;;;;11.93;3.47;;;2.30;99.90;;;;;;4988757;28;20042;-72
2023/03/28 03:19:45;;;;;;;12.95;3.17;;;2.30;99.90;;;;;;4956369;28;20411;-72
2023/03/28 03:22:10;;;;;;;12.75;3.35;;;2.30;99.90;;;;;;4947622;28;20057;-72
2023/03/28 03:24:36;;;;;;;20.48;3.28;;;2.30;99.90;;;;;;4965965;28;20057;-72
2023/03/28 03:27:03;;;;;;;16.00;4.05;;;2.30;99.90;;;;;;4982502;28;20049;-72
2023/03/28 03:29:29;;;;;;;12.57;2.97;;;2.30;99.90;;;;;;4935233;28;20153;-72
2023/03/28 03:31:54;;;;;;;10.90;2.90;;;2.30;99.90;;;;;;4955598;28;20148;-72
2023/03/28 03:34:23;;;;;;;13.20;2.70;;;2.40;99.90;;;;;;4992053;28;20054;-72
2023/03/28 03:36:51;;;;;;;15.85;3.78;;;2.50;99.90;;;;;;4968262;28;20140;-72
2023/03/28 03:39:17;;;;;;;21.92;3.72;;;2.40;99.90;;;;;;4963557;28;20188;-72
2023/03/28 03:41:43;;;;;;;16.88;3.30;;;2.40;99.90;;;;;;4984933;28;20125;-72
2023/03/28 03:44:09;;;;;;;13.50;3.35;;;2.40;99.90;;;;;;4983933;28;20046;-72
2023/03/28 03:46:35;;;;;;;16.85;3.50;;;2.40;99.90;;;;;;4985876;28;20042;-73
2023/03/28 03:49:00;;;;;;;15.13;3.03;;;2.30;99.90;;;;;;4962562;28;20417;-72
2023/03/28 03:51:27;;;;;;;15.65;3.30;;;2.30;99.90;;;;;;4975550;28;20501;-72
2023/03/28 03:53:53;;;;;;;14.73;3.85;;;2.30;99.90;;;;;;4955863;28;20050;-72
2023/03/28 03:56:20;;;;;;;16.45;4.20;;;2.20;99.90;;;;;;4975410;28;20402;-72
2023/03/28 03:58:45;;;;;;;19.60;4.28;;;2.30;99.90;;;;;;4980575;28;20079;-72
2023/03/28 04:01:14;;;;;;;17.48;3.17;;;2.20;99.90;;;;;;4960181;28;20095;-72
2023/03/28 04:03:40;;;;;;;18.98;4.28;;;2.10;99.90;;;;;;4984505;28;20046;-72
2023/03/28 04:06:06;;;;;;;14.07;3.72;;;2.10;99.90;;;;;;4947045;28;20499;-72
2023/03/28 04:08:32;;;;;;;13.15;3.58;;;2.10;99.90;;;;;;4980813;28;20038;-72
2023/03/28 04:10:58;;;;;;;16.92;4.10;;;2.10;99.90;;;;;;4967541;28;20047;-72
2023/03/28 04:13:24;;;;;;;21.08;4.15;;;2.20;99.90;;;;;;4953140;28;20042;-72
2023/03/28 04:15:49;;;;;;;14.10;3.00;;;2.00;99.90;;;;;;4944608;28;20053;-72
2023/03/28 04:18:16;;;;;;;8.95;3.45;;;2.00;99.90;;;;;;4977979;28;20042;-72
2023/03/28 04:20:43;;;;;;;16.52;3.42;;;2.10;99.90;;;;;;4945695;28;20510;-72
2023/03/28 04:23:09;;;;;;;18.45;3.65;;;2.10;99.90;;;;;;4965079;28;20050;-73
2023/03/28 04:25:34;;;;;;;15.05;3.97;;;2.10;99.90;;;;;;4968599;28;20491;-72
2023/03/28 04:28:00;;;;;;;19.88;3.80;;;2.20;99.90;;;;;;4946440;28;20049;-72
2023/03/28 04:30:26;;;;;;;15.15;3.55;;;2.10;99.90;;;;;;4954628;28;20083;-72
2023/03/28 04:32:53;;;;;;;15.13;3.47;;;2.10;99.90;;;;;;4974114;28;20042;-72
2023/03/28 04:35:19;;;;;;;15.63;3.55;;;2.10;99.90;;;;;;4972741;28;20165;-71
2023/03/28 04:37:46;;;;;;;26.95;3.88;;;2.00;99.90;;;;;;4954353;28;20057;-71
2023/03/28 04:40:14;;;;;;;28.10;4.53;;;2.00;99.90;;;;;;4950894;28;20392;-71
2023/03/28 04:42:41;;;;;;;17.88;4.20;;;1.90;99.90;;;;;;4960693;28;20055;-71
2023/03/28 04:45:07;;;;;;;18.77;4.32;;;2.00;99.90;;;;;;4936220;28;20047;-71
2023/03/28 04:47:33;;;;;;;23.80;4.30;;;2.00;99.90;;;;;;4972242;28;20134;-71
2023/03/28 04:49:59;;;;;;;11.93;3.10;;;1.90;99.90;;;;;;4967344;28;20543;-71
2023/03/28 04:52:25;;;;;;;15.60;3.53;;;1.90;99.90;;;;;;4966664;28;20058;-71
2023/03/28 04:54:52;;;;;;;23.67;4.68;;;1.90;99.90;;;;;;4945070;28;20070;-71
2023/03/28 04:57:17;;;;;;;13.20;3.95;;;1.80;99.90;;;;;;4948578;28;20149;-71
2023/03/28 04:59:43;;;;;;;19.38;3.40;;;1.80;99.90;;;;;;4961767;28;20812;-71
2023/03/28 05:02:09;;;;;;;16.52;3.50;;;1.80;99.90;;;;;;4957981;28;20116;-71
2023/03/28 05:04:36;;;;;;;21.98;4.82;;;1.80;99.90;;;;;;4957397;28;20073;-71
2023/03/28 05:07:02;;;;;;;15.07;3.30;;;1.80;99.90;;;;;;4956148;28;20042;-71
2023/03/28 05:09:28;;;;;;;14.07;3.42;;;2.00;99.90;;;;;;4961765;28;20054;-71
2023/03/28 05:11:54;;;;;;;16.70;3.17;;;2.10;99.90;;;;;;4975474;28;20054;-71
2023/03/28 05:14:20;;;;;;;15.80;3.15;;;2.20;99.90;;;;;;4974335;28;20367;-71
2023/03/28 05:16:46;;;;;;;18.85;3.30;;;2.20;99.90;;;;;;4982293;28;20066;-71
2023/03/28 05:19:11;;;;;;;17.42;3.40;;;2.10;99.90;;;;;;4971794;28;20133;-71
2023/03/28 05:21:37;;;;;;;16.02;3.88;;;2.00;99.90;;;;;;4943025;28;20110;-71
2023/03/28 05:24:03;;;;;;;12.43;3.40;;;2.00;99.90;;;;;;4973001;28;20133;-71
2023/03/28 05:26:29;;;;;;;13.73;3.65;;;2.00;99.90;;;;;;4971019;28;20061;-71
2023/03/28 05:28:55;;;;;;;19.90;4.65;;;2.00;99.90;;;;;;4945622;28;20047;-71
2023/03/28 05:31:24;;;;;;;19.70;5.00;;;2.00;99.90;;;;;;4970365;28;20515;-71
2023/03/28 05:33:51;;;;;;;11.90;3.55;;;2.00;99.90;;;;;;4984389;28;20046;-71
2023/03/28 05:36:17;;;;;;;17.67;5.05;;;2.00;99.90;;;;;;4962979;28;20484;-72
2023/03/28 05:38:43;;;;;;;18.15;3.85;;;2.00;99.90;;;;;;4969111;28;20050;-71
2023/03/28 05:41:09;;;;;;;18.25;4.35;;;2.00;99.90;;;;;;4965284;28;20042;-71
2023/03/28 05:43:35;;;;;;;20.50;3.90;;;2.10;99.90;;;;;;4984303;28;20046;-71
2023/03/28 05:46:02;;;;;;;17.15;4.30;;;2.20;99.90;;;;;;4990918;28;20046;-71
2023/03/28 05:48:28;;;;;;;17.60;3.63;;;2.10;99.90;;;;;;4955211;28;20121;-71
2023/03/28 05:50:53;;;;;;;16.15;3.70;;;2.10;99.90;;;;;;4953223;28;20475;-71
2023/03/28 05:53:19;;;;;;;12.70;3.63;;;2.20;99.90;;;;;;4986837;28;20182;-71
2023/03/28 05:55:45;;;;;;;18.13;4.20;;;2.20;99.90;;;;;;4987307;28;20111;-71
2023/03/28 05:58:11;;;;;;;14.98;4.07;;;2.20;99.90;;;;;;4972058;28;20741;-71
2023/03/28 06:00:37;;;;;;;19.15;4.07;;;2.30;99.90;;;;;;4981000;28;20065;-71
2023/03/28 06:03:03;;;;;;;13.82;4.22;;;2.30;99.90;;;;;;4969817;28;20039;-71
2023/03/28 06:05:29;;;;;;;16.58;3.83;;;2.50;99.90;;;;;;4964477;28;20062;-71
2023/03/28 06:07:55;;;;;;;11.82;3.42;;;2.50;99.90;;;;;;4960813;28;20120;-71
2023/03/28 06:10:21;;;;;;;19.05;4.10;;;2.50;99.90;;;;;;4959410;28;20662;-73
2023/03/28 06:12:47;;;;;;;18.13;4.57;;;2.50;99.90;;;;;;4986538;28;20450;-71
2023/03/28 06:15:12;;;;;;;16.80;3.80;;;2.40;99.90;;;;;;4972577;28;20054;-71
2023/03/28 06:17:38;;;;;;;16.20;3.67;;;2.50;99.90;;;;;;4982112;28;20049;-72
2023/03/28 06:20:06;;;;;;;16.50;4.05;;;2.50;99.90;;;;;;4964250;28;20744;-72
2023/03/28 06:22:35;;;;;;;16.83;3.95;;;2.50;99.90;;;;;;4970366;28;20086;-71
2023/03/28 06:25:02;;;;;;;12.07;3.58;;;2.60;99.90;;;;;;4937055;28;20049;-71
2023/03/28 06:27:28;;;;;;;20.13;3.70;;;2.60;99.90;;;;;;4936465;28;20107;-71
2023/03/28 06:29:53;;;;;;;15.13;3.78;;;2.60;99.90;;;;;;4949624;28;20055;-72
2023/03/28 06:32:19;;;;;;;20.35;3.47;;;2.60;99.90;;;;;;4949226;28;20260;-72
2023/03/28 06:34:45;;;;;;;21.63;3.67;;;2.60;99.90;;;;;;4969713;28;20168;-71
2023/03/28 06:37:10;;;;;;;15.13;3.55;;;2.70;99.90;;;;;;4963565;28;20047;-71
2023/03/28 06:39:36;;;;;;;15.27;3.17;;;2.70;99.90;;;;;;4962283;28;20089;-72
2023/03/28 06:42:02;;;;;;;16.52;3.83;;;2.90;99.90;;;;;;4951143;28;20058;-72
2023/03/28 06:44:31;;;;;;;16.58;3.40;;;3.10;99.90;;;;;;4991222;28;20069;-71
2023/03/28 06:46:57;;;;;;;19.38;3.63;;;3.00;99.90;;;;;;4976699;28;20061;-71
2023/03/28 06:49:22;;;;;;;12.93;3.28;;;3.00;99.90;;;;;;4957393;28;20042;-72
2023/03/28 06:51:51;;;;;;;15.63;4.35;;;2.90;99.90;;;;;;4952871;28;20057;-72
2023/03/28 06:54:17;;;;;;;20.90;4.18;;;3.00;99.90;;;;;;4946440;28;20463;-72
2023/03/28 06:56:43;;;;;;;16.65;3.25;;;3.00;99.90;;;;;;4983601;28;20384;-71
2023/03/28 06:59:09;;;;;;;16.50;3.88;;;3.10;99.90;;;;;;4983102;28;20042;-72
2023/03/28 07:01:35;;;;;;;19.15;3.22;;;3.00;99.90;;;;;;4980876;28;20487;-72
2023/03/28 07:04:01;;;;;;;18.05;3.50;;;3.00;99.90;;;;;;4982738;28;20047;-72
2023/03/28 07:06:29;;;;;;;12.35;3.33;;;2.90;99.90;;;;;;4950569;28;20065;-72
2023/03/28 07:08:56;;;;;;;12.10;3.33;;;3.00;99.90;;;;;;4950777;28;20053;-72
2023/03/28 07:11:21;;;;;;;17.27;3.60;;;3.10;99.90;;;;;;4950459;28;20587;-72
2023/03/28 07:13:47;;;;;;;12.65;5.10;;;3.10;99.90;;;;;;4987970;28;20043;-72
2023/03/28 07:16:14;;;;;;;10.82;3.15;;;3.10;99.90;;;;;;4963682;28;20038;-72
2023/03/28 07:18:42;;;;;;;18.45;4.07;;;3.20;99.90;;;;;;4940406;28;20046;-72
2023/03/28 07:21:12;;;;;;;17.67;3.15;;;3.20;99.90;;;;;;4969287;28;20396;-72
2023/03/28 07:23:39;;;;;;;22.58;3.65;;;3.20;99.90;;;;;;4963911;28;20404;-72
2023/03/28 07:26:06;;;;;;;17.55;3.50;;;3.30;99.90;;;;;;4985755;28;20046;-72
2023/03/28 07:28:32;;;;;;;12.48;3.60;;;3.40;99.90;;;;;;4963620;28;20058;-72
2023/03/28 07:30:59;;;;;;;20.08;3.50;;;3.40;99.90;;;;;;4941226;28;20114;-72
2023/03/28 07:33:26;;;;;;;13.13;3.55;;;3.30;99.90;;;;;;4960940;28;20061;-72
2023/03/28 07:35:53;;;;;;;19.25;4.47;;;3.30;99.90;;;;;;4953344;28;20070;-71
2023/03/28 07:38:19;;;;;;;15.52;3.90;;;3.40;99.90;;;;;;4974321;28;20089;-71
2023/03/28 07:40:44;;;;;;;14.32;3.08;;;3.40;99.90;;;;;;4950193;28;20141;-72
2023/03/28 07:43:11;;;;;;;16.20;3.38;;;3.50;99.90;;;;;;4948987;28;20684;-72
2023/03/28 07:45:37;;;;;;;18.60;3.20;;;3.60;99.90;;;;;;4952743;28;20046;-72
2023/03/28 07:48:04;;;;;;;16.17;3.92;;;3.50;99.90;;;;;;4956485;28;20077;-72
2023/03/28 07:50:30;;;;;;;18.55;3.72;;;3.70;99.90;;;;;;4979190;28;20379;-72
2023/03/28 07:52:59;;;;;;;10.77;2.83;;;3.70;99.90;;;;;;4977388;28;20777;-73
2023/03/28 07:55:26;;;;;;;14.63;2.65;;;3.80;99.90;;;;;;4965690;28;20062;-73
2023/03/28 07:57:52;;;;;;;13.05;3.03;;;3.70;99.90;;;;;;4971339;28;20050;-72
2023/03/28 08:00:21;;;;;;;14.10;3.33;;;3.80;99.90;;;;;;4948398;28;20114;-73
2023/03/28 08:02:47;;;;;;;19.70;4.07;;;3.80;99.90;;;;;;4931543;28;20050;-72
2023/03/28 08:05:12;;;;;;;11.88;3.10;;;3.90;99.90;;;;;;4946822;28;20047;-72
2023/03/28 08:07:40;;;;;;;17.52;2.58;;;3.90;99.90;;;;;;4945270;28;20042;-72
2023/03/28 08:10:08;;;;;;;13.50;2.63;;;3.90;99.90;;;;;;4975153;28;20042;-73
2023/03/28 08:12:35;;;;;;;16.63;3.70;;;3.80;99.90;;;;;;4968273;28;20129;-73
2023/03/28 08:15:01;;;;;;;19.17;3.90;;;3.80;99.90;;;;;;4986569;28;20042;-73
2023/03/28 08:17:27;;;;;;;8.98;2.33;;;3.80;99.90;;;;;;4985262;28;20371;-73
2023/03/28 08:19:52;;;;;;;15.77;3.03;;;3.90;99.90;;;;;;4976436;28;20042;-73
2023/03/28 08:22:18;;;;;;;12.65;2.97;;;4.00;99.90;;;;;;4931939;28;20042;-74
2023/03/28 08:24:44;;;;;;;21.35;3.20;;;4.10;99.90;;;;;;4966652;28;20057;-73
2023/03/28 08:27:10;;;;;;;12.98;2.95;;;4.20;99.90;;;;;;4951086;28;20072;-73
2023/03/28 08:29:36;;;;;;;15.90;3.10;;;4.40;99.90;;;;;;4959848;28;20540;-73
2023/03/28 08:32:04;;;;;;;13.32;2.50;;;4.40;99.90;;;;;;4946842;28;20060;-73
2023/03/28 08:34:29;;;;;;;13.48;2.42;;;4.30;99.90;;;;;;4962259;28;20038;-73
2023/03/28 08:36:56;;;;;;;14.32;2.95;;;4.40;99.90;;;;;;4971638;28;20553;-70
2023/03/28 08:39:22;;;;;;;16.20;3.13;;;4.50;99.90;;;;;;4971882;28;20467;-71
2023/03/28 08:42:12;;;;;;;14.13;2.38;;;4.60;99.90;;;;;;4952962;28;20065;-72
2023/03/28 08:44:52;;;;;;;21.65;3.60;;;4.80;99.90;;;;;;4979782;28;20042;-72
2023/03/28 08:47:24;;;;;;;13.10;3.00;;;4.90;99.90;;;;;;4979580;28;20073;-72
2023/03/28 08:49:55;;;;;;;13.43;2.33;;;4.70;99.90;;;;;;4965198;28;20035;-73
2023/03/28 08:52:20;;;;;;;14.63;2.90;;;4.70;99.90;;;;;;4982887;28;20153;-73
2023/03/28 08:54:48;;;;;;;11.10;2.15;;;4.80;99.90;;;;;;4961680;28;20133;-73
2023/03/28 08:57:24;;;;;;;9.88;2.10;;;5.00;99.90;;;;;;4961741;28;20056;-73
2023/03/28 09:00:13;;;;;;;10.82;2.63;;;5.00;99.90;;;;;;4962787;28;20042;-73
2023/03/28 09:02:39;;;;;;;14.95;2.17;;;4.90;99.90;;;;;;4974281;28;20069;-73
2023/03/28 09:05:09;;;;;;;11.70;2.20;;;4.90;99.90;;;;;;4981016;28;20652;-73
2023/03/28 09:08:02;;;;;;;12.75;2.72;;;5.00;99.90;;;;;;4989280;28;20053;-73
2023/03/28 09:10:38;;;;;;;11.57;2.15;;;5.10;99.90;;;;;;4978339;28;20047;-73
2023/03/28 09:13:31;;;;;;;13.52;2.85;;;5.20;99.90;;;;;;4964222;28;20050;-72
2023/03/28 09:16:15;;;;;;;12.38;2.67;;;5.20;99.90;;;;;;4956533;28;20112;-73
2023/03/28 09:19:05;;;;;;;11.90;2.20;;;5.20;99.90;;;;;;4981029;28;20490;-72
2023/03/28 09:21:50;;;;;;;14.63;3.17;;;5.30;99.90;;;;;;4970882;28;20051;-73
2023/03/28 09:24:42;;;;;;;11.07;2.00;;;5.40;99.90;;;;;;4970988;28;20042;-72
2023/03/28 09:27:18;;;;;;;11.68;1.95;;;5.30;99.90;;;;;;4966634;28;20046;-72
2023/03/28 09:29:44;;;;;;;11.45;1.90;;;5.30;99.90;;;;;;4944660;28;20050;-72
2023/03/28 09:32:33;;;;;;;9.25;1.70;;;5.50;99.90;;;;;;4964983;28;20188;-72
2023/03/28 09:34:59;;;;;;;10.80;2.05;;;5.50;99.90;;;;;;4981446;28;20054;-72
2023/03/28 09:37:34;;;;;;;10.70;2.03;;;5.60;99.90;;;;;;4954201;28;20076;-71
2023/03/28 09:40:16;;;;;;;12.70;2.55;;;5.60;99.90;;;;;;4990273;28;20097;-71
2023/03/28 09:43:04;;;;;;;11.35;2.05;;;5.80;99.90;;;;;;4964621;28;20050;-71
2023/03/28 09:45:48;;;;;;;12.65;2.33;;;5.80;99.90;;;;;;4981251;28;20038;-72
2023/03/28 09:48:19;;;;;;;12.30;2.45;;;5.80;99.90;;;;;;4979160;28;20038;-71
2023/03/28 09:50:45;;;;;;;12.68;1.98;;;5.80;99.90;;;;;;4936868;28;20043;-70
2023/03/28 09:53:20;;;;;;;11.30;2.70;;;6.00;99.90;;;;;;4950287;28;20055;-71
2023/03/28 09:55:46;;;;;;;12.95;2.20;;;6.30;99.90;;;;;;4962663;28;20049;-71
2023/03/28 09:58:13;;;;;;;19.15;2.45;;;6.50;99.90;;;;;;4951367;28;20042;-71
2023/03/28 10:00:40;;;;;;;11.93;1.67;;;6.40;99.90;;;;;;4953115;28;20072;-70
2023/03/28 10:03:21;;;;;;;11.75;2.30;;;6.20;99.90;;;;;;4961694;28;20388;-70
2023/03/28 10:05:48;;;;;;;9.20;2.00;;;6.10;99.90;;;;;;4941158;28;20042;-70
2023/03/28 10:08:23;;;;;;;10.18;2.08;;;6.00;99.90;;;;;;4988873;28;20042;-71
2023/03/28 10:11:05;;;;;;;12.43;1.88;;;6.30;99.90;;;;;;4983066;28;20558;-72
2023/03/28 10:13:35;;;;;;;16.50;2.58;;;6.30;99.90;;;;;;4967722;28;20054;-73
2023/03/28 10:16:02;;;;;;;8.98;2.15;;;6.40;99.90;;;;;;4964153;28;20051;-71
2023/03/28 10:18:28;;;;;;;13.32;2.38;;;6.60;99.90;;;;;;4979182;28;20105;-71
2023/03/28 10:20:55;;;;;;;11.43;1.83;;;6.50;99.90;;;;;;4951747;28;20062;-71
2023/03/28 10:23:21;;;;;;;10.25;2.03;;;6.20;99.90;;;;;;4936789;28;20046;-71
2023/03/28 10:25:50;;;;;;;11.68;2.47;;;6.20;99.90;;;;;;4959411;28;20042;-71
2023/03/28 10:28:21;;;;;;;10.13;1.77;;;6.00;99.90;;;;;;4976218;28;20042;-71
2023/03/28 10:30:58;;;;;;;11.85;2.30;;;6.00;99.90;;;;;;4980506;28;20054;-71
2023/03/28 10:33:26;;;;;;;13.23;1.85;;;6.00;99.90;;;;;;4949082;28;20043;-73
2023/03/28 10:35:57;;;;;;;12.07;2.33;;;6.10;99.90;;;;;;4965311;28;20062;-71
2023/03/28 10:38:51;;;;;;;12.43;2.15;;;6.20;99.90;;;;;;4952225;28;20042;-72
2023/03/28 10:41:24;;;;;;;10.52;2.42;;;6.30;99.90;;;;;;4968066;28;20063;-72
2023/03/28 10:43:51;;;;;;;13.05;2.65;;;6.30;99.90;;;;;;4986594;28;20054;-72
2023/03/28 10:46:19;;;;;;;14.35;1.80;;;6.30;99.90;;;;;;4948484;28;20514;-72
2023/03/28 10:48:46;;;;;;;;;;;6.30;99.90;;;;;;4955504;28;20046;-73
2023/03/28 10:51:20;;;;;;;9.32;1.70;;;6.10;99.90;;;;;;4966884;28;20358;-72
2023/03/28 10:54:21;;;;;;;10.63;1.80;;;6.20;99.90;;;;;;4970186;28;20054;-72
2023/03/28 10:56:51;;;;;;;10.77;2.13;;;6.30;99.90;;;;;;4963872;28;20133;-73
2023/03/28 10:59:40;;;;;;;12.35;2.00;;;6.40;99.90;;;;;;4951533;28;20046;-73
2023/03/28 11:02:06;;;;;;;12.55;1.98;;;6.50;99.90;;;;;;4988626;28;20796;-72
2023/03/28 11:04:47;;;;;;;10.63;1.70;;;6.60;99.90;;;;;;4978829;28;20141;-73
2023/03/28 11:07:18;;;;;;;13.93;2.15;;;6.50;99.90;;;;;;4991536;28;20046;-72
2023/03/28 11:10:08;;;;;;;16.55;2.63;;;6.60;99.90;;;;;;4979850;28;20038;-72
2023/03/28 11:12:41;;;;;;;11.80;1.88;;;6.80;99.90;;;;;;4955531;28;20057;-72
2023/03/28 11:15:17;;;;;;;17.23;2.10;;;6.60;99.90;;;;;;4964123;28;20062;-73
2023/03/28 11:18:20;;;;;;;12.32;2.80;;;6.70;99.90;;;;;;4963523;28;20061;-73
2023/03/28 11:20:45;;;;;;;10.45;2.35;;;6.90;99.90;;;;;;4959669;28;20085;-72
2023/03/28 11:23:30;;;;;;;13.32;2.38;;;6.90;99.90;;;;;;4986886;28;20441;-73
2023/03/28 11:26:15;;;;;;;12.13;2.60;;;6.90;99.90;;;;;;4984400;28;20641;-72
2023/03/28 11:29:07;;;;;;;15.38;2.60;;;7.00;99.90;;;;;;4957414;28;20121;-72
2023/03/28 11:31:42;;;;;;;8.55;1.85;;;6.80;99.90;;;;;;4973239;28;20057;-72
2023/03/28 11:34:18;;;;;;;12.55;2.50;;;6.80;99.90;;;;;;4948505;28;20741;-72
2023/03/28 11:37:02;;;;;;;10.80;2.42;;;7.00;99.90;;;;;;4962702;28;20046;-72
2023/03/28 11:39:42;;;;;;;13.77;2.28;;;7.10;99.90;;;;;;4977439;28;20043;-73
2023/03/28 11:42:14;;;;;;;12.88;2.30;;;7.00;99.90;;;;;;4991375;28;20046;-72
2023/03/28 11:44:59;;;;;;;9.80;2.38;;;6.90;99.90;;;;;;4959996;28;20047;-72
2023/03/28 11:47:56;;;;;;;10.20;2.30;;;6.80;99.90;;;;;;4940394;28;20791;-72
2023/03/28 11:50:27;;;;;;;6.95;2.13;;;6.70;99.90;;;;;;4961391;28;20070;-72
2023/03/28 11:52:56;;;;;;;11.18;2.42;;;6.70;99.90;;;;;;4953731;28;20050;-72
2023/03/28 11:55:27;;;;;;;10.00;2.63;;;6.70;99.90;;;;;;4950440;28;20076;-73
2023/03/28 11:57:58;;;;;;;13.73;2.40;;;6.80;99.90;;;;;;4975739;28;20470;-72
2023/03/28 12:00:40;;;;;;;13.02;2.28;;;6.60;99.90;;;;;;4962465;28;20093;-73
2023/03/28 12:03:35;;;;;;;13.10;2.28;;;6.50;99.90;;;;;;4945095;28;20047;-73
2023/03/28 12:06:08;;;;;;;14.48;2.88;;;6.50;99.90;;;;;;4977772;28;20042;-73
2023/03/28 12:08:53;;;;;;;9.38;2.15;;;6.40;99.30;;;;;;4974220;28;20046;-72
2023/03/28 12:11:34;;;;;;;9.55;2.15;;;6.30;99.20;;;;;;4964405;28;20046;-73
2023/03/28 12:14:25;;;;;;;7.90;2.10;;;6.40;99.90;;;;;;4942224;28;20054;-73
2023/03/28 12:16:51;;;;;;;11.52;2.25;;;6.40;99.90;;;;;;4963385;28;20597;-73
2023/03/28 12:19:25;;;;;;;13.10;2.22;;;6.40;99.90;;;;;;4956957;28;20063;-73
2023/03/28 12:21:57;;;;;;;19.25;2.47;;;6.60;99.90;;;;;;4979598;28;20046;-72
2023/03/28 12:24:39;;;;;;;9.50;1.92;;;6.80;98.90;;;;;;4960838;28;20737;-73
2023/03/28 12:27:14;;;;;;;8.50;1.92;;;7.00;98.80;;;;;;4970440;28;20046;-73
2023/03/28 12:30:05;;;;;;;11.63;1.67;;;7.00;97.10;;;;;;4946104;28;20105;-73
2023/03/28 12:32:36;;;;;;;12.98;1.88;;;7.00;96.00;;;;;;4978612;28;20213;-71
2023/03/28 12:35:30;;;;;;;9.38;2.05;;;6.80;96.90;;;;;;4966146;28;20054;-73
2023/03/28 12:38:05;;;;;;;9.57;1.63;;;6.70;98.10;;;;;;4960995;28;20502;-73
2023/03/28 12:41:00;;;;;;;10.13;2.05;;;6.50;98.90;;;;;;4985667;28;20046;-73
2023/03/28 12:43:59;;;;;;;7.35;1.42;;;6.40;99.90;;;;;;4968142;28;20053;-72
2023/03/28 12:46:31;;;;;;;10.63;2.13;;;6.40;99.40;;;;;;4970322;28;20474;-72
2023/03/28 12:49:06;;;;;;;6.40;1.60;;;6.40;99.30;;;;;;4970045;28;20047;-72
2023/03/28 12:51:35;;;;;;;9.93;2.08;;;6.60;97.60;;;;;;4983305;28;20452;-72
2023/03/28 12:54:16;;;;;;;10.73;1.95;;;6.50;96.60;;;;;;4966823;28;20042;-73
2023/03/28 12:56:46;;;;;;;9.88;2.17;;;6.60;98.00;;;;;;4956041;28;20062;-72
2023/03/28 12:59:40;;;;;;;11.10;2.13;;;6.60;97.30;;;;;;4962543;28;20039;-72
2023/03/28 13:02:26;;;;;;;7.65;1.90;;;6.60;97.50;;;;;;4979587;28;20367;-72
2023/03/28 13:05:12;;;;;;;10.55;2.10;;;6.70;96.90;;;;;;4968565;28;20085;-73
2023/03/28 13:07:41;;;;;;;16.75;3.70;;;6.80;96.10;;;;;;4950594;28;20043;-72
2023/03/28 13:10:45;;;;;;;12.60;2.92;;;7.00;96.30;;;;;;4982620;28;20383;-73